Time;durP1;ratioP1;P1;durP2;ratioP2;P2;SDS_P1;SDS_P2;PMS_P1;PMS_P2;Temp;Humidity;BMP_temperature;BMP_pressure;BME280_temperature;BME280_humidity;BME280_pressure;Samples;Min_cycle;Max_cycle;Signal;HPM_P1;HPM_P2
2021/06/23 00:02:25;;;;;;;10.77;2.65;;;13.10;99.90;;;;;;5050158;28;20017;-70
2021/06/23 00:04:51;;;;;;;5.97;2.60;;;13.10;99.90;;;;;;5048796;28;20113;-70
2021/06/23 00:07:17;;;;;;;7.75;2.53;;;13.10;99.90;;;;;;5047825;28;20029;-70
2021/06/23 00:09:42;;;;;;;8.88;2.80;;;13.10;99.90;;;;;;5047497;28;20037;-70
2021/06/23 00:12:15;;;;;;;6.72;2.55;;;13.10;99.90;;;;;;5049099;28;20025;-70
2021/06/23 00:14:40;;;;;;;6.20;2.97;;;13.10;99.90;;;;;;5048909;28;20029;-71
2021/06/23 00:17:06;;;;;;;5.68;2.78;;;13.20;99.90;;;;;;5050837;28;20112;-71
2021/06/23 00:19:32;;;;;;;7.38;2.65;;;13.20;99.90;;;;;;5043186;28;20038;-71
2021/06/23 00:21:57;;;;;;;11.20;3.05;;;13.20;99.90;;;;;;5049282;28;20056;-70
2021/06/23 00:24:23;;;;;;;7.95;2.50;;;13.30;99.90;;;;;;5045289;28;20040;-70
2021/06/23 00:26:48;;;;;;;6.13;2.35;;;13.30;99.90;;;;;;5046184;28;20075;-71
2021/06/23 00:29:14;;;;;;;7.28;2.40;;;13.30;99.90;;;;;;5048672;28;20021;-71
2021/06/23 00:31:40;;;;;;;9.55;2.92;;;13.40;99.90;;;;;;5045505;28;20088;-70
2021/06/23 00:34:10;;;;;;;8.15;2.50;;;13.40;99.90;;;;;;5041674;28;20021;-71
2021/06/23 00:36:36;;;;;;;9.10;2.83;;;13.40;99.90;;;;;;5039189;28;20036;-71
2021/06/23 00:39:02;;;;;;;10.10;3.00;;;13.30;99.90;;;;;;5042060;28;20025;-70
2021/06/23 00:41:27;;;;;;;11.10;2.80;;;13.40;99.90;;;;;;5033681;28;20493;-70
2021/06/23 00:43:54;;;;;;;7.70;2.35;;;13.40;99.90;;;;;;5041794;28;20029;-70
2021/06/23 00:46:20;;;;;;;9.35;3.17;;;13.40;99.90;;;;;;5037533;28;20041;-70
2021/06/23 00:48:46;;;;;;;9.93;2.55;;;13.40;99.90;;;;;;5040362;28;20368;-70
2021/06/23 00:51:13;;;;;;;8.80;2.72;;;13.40;99.90;;;;;;5040398;28;20033;-70
2021/06/23 00:53:39;;;;;;;12.45;2.00;;;13.40;99.90;;;;;;5038824;28;20057;-71
2021/06/23 00:56:05;;;;;;;6.95;1.65;;;13.40;99.90;;;;;;5040979;28;20061;-70
2021/06/23 00:58:30;;;;;;;12.23;2.70;;;13.50;99.90;;;;;;5041590;28;20124;-70
2021/06/23 01:00:57;;;;;;;10.85;2.50;;;13.40;99.90;;;;;;5038024;28;20511;-70
2021/06/23 01:03:24;;;;;;;8.02;2.22;;;13.40;99.90;;;;;;5041261;28;20353;-70
2021/06/23 01:05:50;;;;;;;7.63;2.20;;;13.40;99.90;;;;;;5038076;28;20045;-70
2021/06/23 01:08:17;;;;;;;9.32;2.00;;;13.40;99.90;;;;;;5040063;28;20037;-69
2021/06/23 01:10:42;;;;;;;8.23;2.28;;;13.40;99.90;;;;;;5039605;28;20028;-70
2021/06/23 01:13:34;;;;;;;5.20;2.25;;;13.40;99.90;;;;;;5039064;28;20346;-70
2021/06/23 01:16:02;;;;;;;9.50;2.45;;;13.40;99.90;;;;;;5037711;28;20116;-70
2021/06/23 01:18:28;;;;;;;6.32;1.90;;;13.40;99.90;;;;;;5041693;28;20025;-70
2021/06/23 01:20:53;;;;;;;5.63;2.40;;;13.40;99.90;;;;;;5039845;28;20086;-70
2021/06/23 01:23:19;;;;;;;9.52;2.15;;;13.40;99.90;;;;;;5037176;28;20522;-69
2021/06/23 01:25:47;;;;;;;8.93;2.42;;;13.40;99.90;;;;;;5040073;28;20150;-70
2021/06/23 01:28:12;;;;;;;13.00;2.30;;;13.40;99.90;;;;;;5038707;28;20153;-70
2021/06/23 01:30:38;;;;;;;12.18;3.40;;;13.40;99.90;;;;;;5037396;28;20137;-70
2021/06/23 01:33:05;;;;;;;7.25;2.70;;;13.40;99.90;;;;;;5038195;28;20093;-69
2021/06/23 01:35:31;;;;;;;7.53;2.08;;;13.40;99.90;;;;;;5036706;28;20037;-70
2021/06/23 01:38:00;;;;;;;9.85;2.40;;;13.40;99.90;;;;;;5040429;28;20033;-70
2021/06/23 01:40:26;;;;;;;9.15;2.80;;;13.40;99.90;;;;;;5033348;28;20029;-70
2021/06/23 01:42:52;;;;;;;6.40;2.25;;;13.40;99.90;;;;;;5039921;28;20029;-72
2021/06/23 01:45:17;;;;;;;7.45;2.17;;;13.40;99.90;;;;;;5037937;28;20118;-70
2021/06/23 01:47:43;;;;;;;7.57;2.22;;;13.40;99.90;;;;;;5038207;28;20045;-70
2021/06/23 01:50:12;;;;;;;9.80;2.20;;;13.40;99.90;;;;;;5037575;28;20561;-69
2021/06/23 01:52:42;;;;;;;8.82;2.33;;;13.40;99.90;;;;;;5037310;28;20049;-70
2021/06/23 01:55:08;;;;;;;7.18;2.35;;;13.40;99.90;;;;;;5038810;28;20037;-70
2021/06/23 01:57:39;;;;;;;7.07;2.50;;;13.40;99.90;;;;;;5038152;28;20037;-70
2021/06/23 02:00:06;;;;;;;6.82;1.83;;;13.40;99.90;;;;;;5039236;28;20405;-70
2021/06/23 02:02:36;;;;;;;6.97;2.35;;;13.50;99.90;;;;;;5036935;28;20040;-70
2021/06/23 02:05:04;;;;;;;;;;;13.50;99.90;;;;;;5040025;28;20048;-69
2021/06/23 02:07:54;;;;;;;5.38;2.00;;;13.40;99.90;;;;;;5037397;28;19913;-70
2021/06/23 02:10:43;;;;;;;8.23;2.35;;;13.40;99.90;;;;;;5036860;28;20112;-71
2021/06/23 02:13:12;;;;;;;6.75;2.13;;;13.40;99.90;;;;;;5038541;28;20025;-69
2021/06/23 02:15:40;;;;;;;10.07;2.00;;;13.40;99.90;;;;;;5039191;28;20045;-69
2021/06/23 02:18:07;;;;;;;4.82;2.15;;;13.40;99.90;;;;;;5037675;28;20025;-67
2021/06/23 02:20:34;;;;;;;5.90;2.20;;;13.30;99.90;;;;;;5041781;28;20072;-70
2021/06/23 02:23:07;;;;;;;7.18;2.35;;;13.30;99.90;;;;;;5035525;28;20124;-68
2021/06/23 02:25:33;;;;;;;7.07;2.03;;;13.30;99.90;;;;;;5039513;28;20580;-70
2021/06/23 02:27:59;;;;;;;10.65;2.30;;;13.30;99.90;;;;;;5036890;28;20033;-71
2021/06/23 02:30:25;;;;;;;9.25;2.65;;;13.30;99.90;;;;;;5040045;28;20036;-70
2021/06/23 02:32:54;;;;;;;7.18;2.40;;;13.20;99.90;;;;;;5036551;28;20025;-69
2021/06/23 02:35:24;;;;;;;7.75;2.42;;;13.10;99.90;;;;;;5036502;28;20049;-69
2021/06/23 02:37:50;;;;;;;7.55;2.15;;;13.10;99.90;;;;;;5038829;28;20116;-67
2021/06/23 02:40:17;;;;;;;7.32;2.63;;;13.00;99.90;;;;;;5032327;28;20038;-69
2021/06/23 02:42:42;;;;;;;8.25;2.50;;;13.00;99.90;;;;;;5039337;28;20482;-69
2021/06/23 02:45:08;;;;;;;8.70;2.55;;;13.00;99.90;;;;;;5036376;28;20131;-69
2021/06/23 02:47:35;;;;;;;12.35;2.63;;;13.00;99.90;;;;;;5037964;28;20114;-68
2021/06/23 02:50:00;;;;;;;12.02;2.75;;;12.90;99.90;;;;;;5039234;28;20195;-70
2021/06/23 02:52:26;;;;;;;9.50;2.75;;;12.90;99.90;;;;;;5036738;28;20088;-69
2021/06/23 02:54:52;;;;;;;6.43;2.50;;;12.90;99.90;;;;;;5038825;28;20037;-69
2021/06/23 02:57:20;;;;;;;6.10;2.53;;;12.90;99.90;;;;;;5038252;28;20041;-69
2021/06/23 02:59:47;;;;;;;10.90;2.95;;;12.90;99.90;;;;;;5040166;28;20536;-69
2021/06/23 03:02:12;;;;;;;7.20;2.85;;;12.90;99.90;;;;;;5035355;28;20025;-69
2021/06/23 03:04:46;;;;;;;4.43;2.42;;;12.90;99.90;;;;;;5038781;28;20401;-69
2021/06/23 03:07:13;;;;;;;6.53;2.67;;;12.80;99.90;;;;;;5036873;28;20119;-70
2021/06/23 03:09:39;;;;;;;8.65;2.65;;;12.80;99.90;;;;;;5037205;28;20461;-69
2021/06/23 03:12:06;;;;;;;6.50;2.70;;;12.80;99.90;;;;;;5038116;28;20098;-69
2021/06/23 03:14:31;;;;;;;8.27;2.58;;;12.90;99.90;;;;;;5036892;28;20029;-69
2021/06/23 03:16:58;;;;;;;6.80;2.33;;;12.80;99.90;;;;;;5039451;28;20479;-69
2021/06/23 03:19:24;;;;;;;9.25;3.13;;;12.80;99.90;;;;;;5036462;28;20030;-69
2021/06/23 03:21:50;;;;;;;8.00;2.92;;;12.80;99.90;;;;;;5038502;28;20033;-69
2021/06/23 03:24:15;;;;;;;6.72;2.45;;;12.80;99.90;;;;;;5038534;28;20041;-69
2021/06/23 03:26:41;;;;;;;8.18;2.45;;;12.90;99.90;;;;;;5041949;28;20120;-66
2021/06/23 03:29:21;;;;;;;10.75;2.67;;;12.90;99.90;;;;;;5041797;28;20463;-70
2021/06/23 03:31:47;;;;;;;8.77;2.33;;;12.90;99.90;;;;;;5040183;28;20072;-70
2021/06/23 03:34:12;;;;;;;13.23;2.95;;;12.90;99.90;;;;;;5043629;28;20064;-70
2021/06/23 03:36:38;;;;;;;12.50;3.03;;;12.90;99.90;;;;;;5040700;28;20441;-68
2021/06/23 03:39:03;;;;;;;7.28;2.70;;;12.90;99.90;;;;;;5040440;28;20549;-69
2021/06/23 03:41:29;;;;;;;9.32;2.83;;;12.90;99.90;;;;;;5036544;28;20441;-69
2021/06/23 03:43:54;;;;;;;6.82;2.20;;;12.90;99.90;;;;;;5042563;28;20366;-68
2021/06/23 03:46:20;;;;;;;12.13;2.97;;;12.90;99.90;;;;;;5040216;28;20505;-68
2021/06/23 03:48:45;;;;;;;6.22;2.60;;;12.90;99.90;;;;;;5043134;28;20076;-70
2021/06/23 03:51:11;;;;;;;8.45;2.60;;;12.90;99.90;;;;;;5040251;28;20053;-69
2021/06/23 03:53:36;;;;;;;7.63;2.35;;;12.90;99.90;;;;;;5041755;28;20033;-70
2021/06/23 03:56:02;;;;;;;8.20;2.47;;;12.90;99.90;;;;;;5039875;28;20087;-70
2021/06/23 03:58:28;;;;;;;6.63;2.00;;;12.90;99.90;;;;;;5039401;28;20490;-69
2021/06/23 04:00:53;;;;;;;9.60;2.70;;;12.90;99.90;;;;;;5042567;28;20485;-69
2021/06/23 04:03:19;;;;;;;6.80;2.45;;;12.90;99.90;;;;;;5039782;28;20048;-69
2021/06/23 04:05:45;;;;;;;8.00;2.58;;;12.90;99.90;;;;;;5037133;28;20036;-70
2021/06/23 04:08:10;;;;;;;8.18;2.70;;;12.90;99.90;;;;;;5039861;28;20048;-70
2021/06/23 04:10:36;;;;;;;12.63;3.47;;;12.90;99.90;;;;;;5041274;28;20036;-68
2021/06/23 04:13:01;;;;;;;12.07;3.08;;;12.90;99.90;;;;;;5040530;28;20033;-68
2021/06/23 04:15:27;;;;;;;7.78;2.05;;;12.90;99.90;;;;;;5040588;28;20029;-70
2021/06/23 04:17:52;;;;;;;9.38;1.90;;;13.00;99.90;;;;;;5041683;28;20459;-70
2021/06/23 04:20:18;;;;;;;4.22;2.10;;;13.00;99.90;;;;;;5039438;28;20038;-69
2021/06/23 04:22:43;;;;;;;7.35;2.47;;;13.00;99.90;;;;;;5038774;28;20045;-70
2021/06/23 04:25:10;;;;;;;11.15;2.78;;;13.00;99.90;;;;;;5041849;28;20441;-70
2021/06/23 04:27:36;;;;;;;14.70;2.90;;;13.10;99.90;;;;;;5039696;28;20764;-74
2021/06/23 04:30:07;;;;;;;9.02;2.63;;;13.20;99.90;;;;;;5041014;28;20113;-69
2021/06/23 04:32:33;;;;;;;9.40;2.80;;;13.20;99.90;;;;;;5040823;28;20041;-69
2021/06/23 04:35:01;;;;;;;7.38;2.33;;;13.30;99.90;;;;;;5039385;28;20029;-70
2021/06/23 04:37:27;;;;;;;7.68;2.10;;;13.30;99.90;;;;;;5040287;28;20067;-68
2021/06/23 04:39:52;;;;;;;6.18;2.17;;;13.40;99.90;;;;;;5036399;28;20068;-70
2021/06/23 04:42:18;;;;;;;6.40;2.28;;;13.40;99.90;;;;;;5036977;28;20428;-69
2021/06/23 04:44:43;;;;;;;10.25;2.25;;;13.40;99.90;;;;;;5039073;28;20029;-70
2021/06/23 04:47:09;;;;;;;5.47;1.77;;;13.40;99.90;;;;;;5036579;28;20499;-69
2021/06/23 04:49:34;;;;;;;10.02;2.67;;;13.50;99.90;;;;;;5036101;28;20481;-70
2021/06/23 04:52:00;;;;;;;10.30;2.40;;;13.60;99.90;;;;;;5039351;28;20049;-70
2021/06/23 04:54:25;;;;;;;8.07;2.80;;;13.70;99.90;;;;;;5039952;28;20124;-70
2021/06/23 04:56:51;;;;;;;7.15;2.03;;;13.80;99.90;;;;;;5038258;28;20131;-70
2021/06/23 04:59:16;;;;;;;7.70;1.88;;;13.80;99.90;;;;;;5035722;28;20037;-70
2021/06/23 05:01:42;;;;;;;6.85;2.30;;;13.90;99.90;;;;;;5036699;28;20037;-71
2021/06/23 05:04:08;;;;;;;10.85;2.60;;;14.00;99.90;;;;;;5039475;28;20045;-69
2021/06/23 05:06:33;;;;;;;8.15;2.08;;;14.10;99.90;;;;;;5039757;28;20033;-69
2021/06/23 05:08:59;;;;;;;11.98;2.60;;;14.10;99.90;;;;;;5037577;28;20041;-70
2021/06/23 05:11:25;;;;;;;5.93;2.53;;;14.20;99.90;;;;;;5039902;28;20119;-70
2021/06/23 05:13:50;;;;;;;6.50;2.95;;;14.20;99.90;;;;;;5037857;28;20036;-69
2021/06/23 05:16:16;;;;;;;9.02;2.40;;;14.30;99.90;;;;;;5036550;28;20043;-70
2021/06/23 05:18:42;;;;;;;5.20;2.67;;;14.40;99.90;;;;;;5040299;28;20041;-69
2021/06/23 05:21:07;;;;;;;5.18;2.55;;;14.40;99.90;;;;;;5043292;28;20091;-70
2021/06/23 05:23:33;;;;;;;12.98;2.72;;;14.40;99.90;;;;;;5036363;28;20060;-69
2021/06/23 05:25:58;;;;;;;7.65;2.30;;;14.40;99.90;;;;;;5035929;28;20396;-70
2021/06/23 05:28:24;;;;;;;11.75;2.75;;;14.40;99.90;;;;;;5047498;28;20481;-70
2021/06/23 05:30:49;;;;;;;9.10;2.65;;;14.40;99.90;;;;;;5043335;28;20078;-70
2021/06/23 05:33:15;;;;;;;7.05;2.38;;;14.40;99.90;;;;;;5042808;28;20041;-70
2021/06/23 05:35:41;;;;;;;7.78;2.28;;;14.50;99.90;;;;;;5038547;28;20033;-69
2021/06/23 05:38:06;;;;;;;7.25;2.40;;;14.50;99.90;;;;;;5042604;28;20041;-69
2021/06/23 05:40:32;;;;;;;8.48;2.50;;;14.60;99.90;;;;;;5045935;28;20033;-70
2021/06/23 05:42:57;;;;;;;7.30;2.53;;;14.70;99.90;;;;;;5043841;28;20416;-70
2021/06/23 05:45:23;;;;;;;4.85;2.42;;;14.80;99.90;;;;;;5042651;28;20186;-70
2021/06/23 05:47:49;;;;;;;8.23;2.10;;;14.80;99.90;;;;;;5042454;28;20029;-70
2021/06/23 05:50:14;;;;;;;7.18;1.83;;;14.90;99.90;;;;;;5040816;28;20123;-70
2021/06/23 05:52:40;;;;;;;5.35;2.03;;;15.00;99.90;;;;;;5048066;28;20033;-69
2021/06/23 05:55:06;;;;;;;4.32;1.77;;;15.10;99.90;;;;;;5044386;28;20043;-70
2021/06/23 05:57:31;;;;;;;4.80;1.70;;;15.10;99.90;;;;;;5044708;28;20048;-70
2021/06/23 05:59:57;;;;;;;4.65;1.67;;;15.20;99.90;;;;;;5041468;28;20032;-70
2021/06/23 06:02:23;;;;;;;10.38;2.03;;;15.20;99.90;;;;;;5044420;28;20041;-69
2021/06/23 06:04:48;;;;;;;7.28;1.52;;;15.30;99.90;;;;;;5046302;28;20385;-70
2021/06/23 06:07:14;;;;;;;4.15;1.58;;;15.30;99.90;;;;;;5040866;28;20033;-70
2021/06/23 06:09:39;;;;;;;5.68;1.60;;;15.30;99.90;;;;;;5041137;28;20025;-69
2021/06/23 06:12:06;;;;;;;7.82;2.05;;;15.40;99.90;;;;;;5042502;28;20040;-70
2021/06/23 06:14:31;;;;;;;5.45;1.38;;;15.40;99.90;;;;;;5042720;28;20033;-68
2021/06/23 06:16:59;;;;;;;6.13;1.55;;;15.40;99.90;;;;;;5040947;28;20036;-70
2021/06/23 06:19:25;;;;;;;4.57;1.35;;;15.40;99.90;;;;;;5040793;28;20050;-69
2021/06/23 06:21:50;;;;;;;5.72;1.58;;;15.50;99.90;;;;;;5044264;28;20048;-70
2021/06/23 06:24:16;;;;;;;5.03;1.10;;;15.60;99.90;;;;;;5045042;28;20040;-69
2021/06/23 06:26:41;;;;;;;11.70;1.45;;;15.60;99.90;;;;;;5043298;28;20068;-69
2021/06/23 06:29:07;;;;;;;5.30;2.05;;;15.60;99.90;;;;;;5044202;28;20026;-69
2021/06/23 06:31:32;;;;;;;2.83;1.20;;;15.70;99.90;;;;;;5046823;28;20035;-70
2021/06/23 06:33:58;;;;;;;5.13;0.80;;;15.80;99.90;;;;;;5043655;28;20040;-71
2021/06/23 06:36:23;;;;;;;11.48;0.98;;;15.80;99.90;;;;;;5044246;28;20052;-70
2021/06/23 06:38:49;;;;;;;6.40;1.15;;;16.00;99.90;;;;;;5046402;28;20036;-70
2021/06/23 06:41:15;;;;;;;3.75;0.80;;;16.10;99.90;;;;;;5038843;28;20041;-71
2021/06/23 06:43:40;;;;;;;8.00;0.88;;;16.20;99.90;;;;;;5047379;28;20048;-71
2021/06/23 06:46:06;;;;;;;2.72;0.70;;;16.20;99.90;;;;;;5044696;28;20708;-71
2021/06/23 06:48:31;;;;;;;5.35;0.70;;;16.30;99.90;;;;;;5044584;28;20041;-70
2021/06/23 06:50:57;;;;;;;5.57;1.10;;;16.40;99.90;;;;;;5043434;28;20029;-72
2021/06/23 06:53:24;;;;;;;7.68;0.55;;;16.60;99.90;;;;;;5044460;28;20040;-70
2021/06/23 06:55:49;;;;;;;4.38;0.90;;;16.80;99.90;;;;;;5039755;28;20033;-71
2021/06/23 06:58:15;;;;;;;5.50;0.60;;;16.90;99.90;;;;;;5044984;28;20408;-70
2021/06/23 07:00:41;;;;;;;4.05;0.80;;;16.90;99.90;;;;;;5048964;28;20043;-71
2021/06/23 07:03:07;;;;;;;7.65;0.82;;;17.00;99.90;;;;;;5050219;28;20492;-71
2021/06/23 07:05:33;;;;;;;4.43;0.57;;;16.90;99.90;;;;;;5042427;28;20041;-71
2021/06/23 07:07:58;;;;;;;7.28;1.02;;;16.80;99.90;;;;;;5043893;28;20163;-71
2021/06/23 07:10:24;;;;;;;2.90;0.55;;;16.70;99.90;;;;;;5047476;28;20124;-71
2021/06/23 07:12:50;;;;;;;3.45;0.60;;;16.70;99.90;;;;;;5050422;28;20024;-70
2021/06/23 07:15:16;;;;;;;6.57;0.70;;;16.70;99.90;;;;;;5047604;28;20037;-72
2021/06/23 07:17:42;;;;;;;3.40;0.70;;;16.60;99.90;;;;;;5041654;28;20036;-70
2021/06/23 07:20:09;;;;;;;5.95;1.23;;;16.50;99.90;;;;;;5038827;28;20486;-72
2021/06/23 07:22:34;;;;;;;4.47;0.70;;;16.60;99.90;;;;;;5041910;28;20478;-71
2021/06/23 07:25:00;;;;;;;3.63;0.68;;;16.60;99.90;;;;;;5043708;28;20028;-70
2021/06/23 07:27:27;;;;;;;3.60;0.93;;;16.70;99.90;;;;;;5041863;28;20103;-71
2021/06/23 07:29:53;;;;;;;9.63;1.67;;;16.70;99.90;;;;;;5047161;28;20021;-70
2021/06/23 07:32:24;;;;;;;3.08;0.40;;;16.80;99.90;;;;;;5043453;28;20029;-71
2021/06/23 07:37:16;;;;;;;3.92;0.75;;;16.80;99.90;;;;;;5046947;28;20037;-70
2021/06/23 07:39:42;;;;;;;4.05;0.80;;;16.80;99.90;;;;;;5050088;28;20041;-71
2021/06/23 07:42:09;;;;;;;2.08;0.65;;;16.90;99.90;;;;;;5051010;28;20500;-71
2021/06/23 07:47:07;;;;;;;6.55;0.82;;;16.90;99.90;;;;;;5040447;28;20551;-72
2021/06/23 07:49:36;;;;;;;6.93;1.05;;;17.00;99.90;;;;;;5045613;28;20029;-72
2021/06/23 07:52:21;;;;;;;8.45;1.13;;;17.30;99.90;;;;;;5046247;28;20409;-72
2021/06/23 07:55:08;;;;;;;6.28;0.77;;;17.40;99.90;;;;;;5048030;28;20056;-72
2021/06/23 08:08:37;;;;;;;2.60;0.77;;;17.60;99.90;;;;;;5041004;28;20098;-70
2021/06/23 08:11:27;;;;;;;4.03;0.50;;;17.60;99.90;;;;;;5047097;28;20651;-72
2021/06/23 08:13:52;;;;;;;5.45;0.60;;;17.50;99.90;;;;;;5042475;28;20029;-71
2021/06/23 08:16:18;;;;;;;4.82;0.50;;;17.60;99.90;;;;;;5045541;28;20037;-70
2021/06/23 08:18:43;;;;;;;10.13;0.82;;;17.80;99.90;;;;;;5049755;28;20075;-72
2021/06/23 08:21:09;;;;;;;4.97;0.77;;;17.90;99.90;;;;;;5047876;28;20102;-71
2021/06/23 08:23:35;;;;;;;3.50;0.60;;;18.20;99.90;;;;;;5048144;28;20564;-72
2021/06/23 08:26:01;;;;;;;7.72;0.88;;;18.50;99.90;;;;;;5042645;28;20116;-71
2021/06/23 08:28:26;;;;;;;5.38;0.70;;;19.10;99.90;;;;;;5038234;28;20377;-71
2021/06/23 08:30:52;;;;;;;4.45;0.95;;;20.00;99.90;;;;;;5047526;28;20069;-71
2021/06/23 08:33:18;;;;;;;8.27;0.60;;;20.50;99.00;;;;;;5042293;28;20036;-71
2021/06/23 08:35:43;;;;;;;4.35;0.80;;;20.90;97.40;;;;;;5047205;28;20036;-70
2021/06/23 08:38:09;;;;;;;4.32;1.13;;;20.90;96.40;;;;;;5042117;28;20080;-73
2021/06/23 08:40:34;;;;;;;4.68;0.82;;;20.60;95.90;;;;;;5046644;28;20037;-72
2021/06/23 08:43:00;;;;;;;6.65;2.03;;;20.10;97.00;;;;;;5045771;28;20041;-72
2021/06/23 08:45:26;;;;;;;9.85;1.30;;;19.70;97.80;;;;;;5045114;28;20038;-72
2021/06/23 08:47:51;;;;;;;3.90;0.50;;;19.30;97.90;;;;;;5044795;28;20036;-73
2021/06/23 08:50:23;;;;;;;7.40;1.08;;;18.90;98.70;;;;;;5045664;28;20049;-72
2021/06/23 08:52:49;;;;;;;3.22;0.88;;;18.60;99.70;;;;;;5042599;28;20075;-72
2021/06/23 08:55:19;;;;;;;2.88;0.52;;;18.40;99.90;;;;;;5045447;28;20388;-72
2021/06/23 08:57:48;;;;;;;6.43;0.73;;;18.10;99.90;;;;;;5044541;28;20602;-72
2021/06/23 09:00:14;;;;;;;4.35;0.80;;;17.80;99.90;;;;;;5045168;28;20116;-73
2021/06/23 09:02:40;;;;;;;8.70;2.13;;;17.70;99.90;;;;;;5044559;28;20028;-73
2021/06/23 09:05:08;;;;;;;4.15;0.80;;;17.50;99.90;;;;;;5045130;28;20036;-74
2021/06/23 09:07:48;;;;;;;3.05;0.60;;;17.40;99.90;;;;;;5041527;28;20650;-72
2021/06/23 09:10:23;;;;;;;4.18;0.57;;;17.30;99.90;;;;;;5042892;28;20041;-73
2021/06/23 09:13:01;;;;;;;3.47;0.95;;;17.20;99.90;;;;;;5042314;28;20094;-73
2021/06/23 09:15:57;;;;;;;7.90;0.73;;;17.20;99.90;;;;;;5042666;28;20045;-72
2021/06/23 09:18:30;;;;;;;4.20;0.75;;;17.20;99.90;;;;;;5042309;28;20033;-73
2021/06/23 09:21:02;;;;;;;5.20;0.77;;;17.10;99.90;;;;;;5041344;28;20041;-73
2021/06/23 09:23:50;;;;;;;6.28;0.90;;;17.10;99.90;;;;;;5042368;28;20037;-72
2021/06/23 09:26:26;;;;;;;3.95;0.63;;;17.00;99.90;;;;;;5045553;28;20044;-72
2021/06/23 09:29:09;;;;;;;8.25;1.10;;;16.90;99.90;;;;;;5048028;28;20037;-72
2021/06/23 09:32:03;;;;;;;6.65;1.02;;;16.70;99.90;;;;;;5042901;28;20550;-70
2021/06/23 09:34:31;;;;;;;3.10;1.00;;;16.60;99.90;;;;;;5046874;28;20431;-69
2021/06/23 09:36:57;;;;;;;6.53;0.60;;;16.60;99.90;;;;;;5045335;28;20039;-70
2021/06/23 09:39:25;;;;;;;6.97;1.02;;;16.50;99.90;;;;;;5039137;28;20123;-71
2021/06/23 09:41:51;;;;;;;5.45;1.20;;;16.40;99.90;;;;;;5042274;28;20086;-69
2021/06/23 09:44:17;;;;;;;2.53;0.70;;;16.40;99.90;;;;;;5045026;28;20044;-71
2021/06/23 09:46:45;;;;;;;6.05;0.63;;;16.40;99.90;;;;;;5045731;28;20036;-69
2021/06/23 09:49:21;;;;;;;6.65;0.98;;;16.30;99.90;;;;;;5041951;28;20128;-69
2021/06/23 09:51:50;;;;;;;6.22;0.85;;;16.30;99.90;;;;;;5042086;28;20033;-69
2021/06/23 09:54:22;;;;;;;6.10;0.90;;;16.30;99.90;;;;;;5045310;28;20068;-71
2021/06/23 09:56:48;;;;;;;5.78;0.70;;;16.40;99.90;;;;;;5043392;28;20053;-71
2021/06/23 09:59:37;;;;;;;3.30;0.80;;;16.50;99.90;;;;;;5043145;28;20036;-71
2021/06/23 10:02:04;;;;;;;8.70;0.77;;;16.60;99.90;;;;;;5042685;28;20029;-71
2021/06/23 10:04:36;;;;;;;8.93;1.42;;;16.60;99.90;;;;;;5041646;28;20037;-71
2021/06/23 10:07:03;;;;;;;6.47;0.80;;;16.60;99.90;;;;;;5031934;28;20035;-72
2021/06/23 10:09:31;;;;;;;5.28;0.50;;;16.70;99.90;;;;;;5038695;28;20523;-73
2021/06/23 10:12:16;;;;;;;8.38;0.70;;;16.90;99.90;;;;;;5040335;28;20053;-71
2021/06/23 10:14:45;;;;;;;3.30;0.93;;;17.00;99.90;;;;;;5043663;28;20416;-72
2021/06/23 10:17:12;;;;;;;2.67;0.60;;;17.20;99.90;;;;;;5038776;28;20579;-71
2021/06/23 10:19:39;;;;;;;6.78;0.80;;;17.30;99.90;;;;;;5035247;28;20404;-73
2021/06/23 10:22:06;;;;;;;12.95;1.00;;;17.50;99.90;;;;;;5035162;28;20048;-71
2021/06/23 10:24:34;;;;;;;9.48;1.00;;;17.60;99.90;;;;;;5036541;28;20036;-72
2021/06/23 10:27:04;;;;;;;4.53;0.57;;;17.80;99.90;;;;;;5038140;28;20056;-71
2021/06/23 10:29:31;;;;;;;6.00;1.17;;;17.90;99.90;;;;;;5033229;28;20047;-72
2021/06/23 10:31:57;;;;;;;5.72;0.88;;;18.10;99.90;;;;;;5042162;28;20447;-72
2021/06/23 10:34:24;;;;;;;10.15;0.85;;;18.40;99.90;;;;;;5038059;28;20120;-71
2021/06/23 10:36:50;;;;;;;4.10;1.30;;;18.80;99.90;;;;;;5036238;28;20034;-73
2021/06/23 10:39:17;;;;;;;2.92;0.77;;;19.10;99.90;;;;;;5036103;28;20029;-71
2021/06/23 10:41:47;;;;;;;4.15;0.60;;;19.40;99.90;;;;;;5041161;28;20044;-71
2021/06/23 10:44:26;;;;;;;3.97;0.50;;;19.70;99.90;;;;;;5039235;28;20033;-71
2021/06/23 10:46:54;;;;;;;4.38;0.60;;;19.90;98.80;;;;;;5039892;28;20412;-72
2021/06/23 10:49:47;;;;;;;3.92;0.65;;;20.20;98.60;;;;;;5039615;28;20029;-71
2021/06/23 10:52:21;;;;;;;4.70;1.15;;;20.60;98.00;;;;;;5038277;28;20475;-72
2021/06/23 10:54:50;;;;;;;2.03;0.52;;;20.90;96.40;;;;;;5040462;28;20041;-72
2021/06/23 10:57:38;;;;;;;1.60;0.50;;;20.90;96.60;;;;;;5040489;28;20049;-72
2021/06/23 11:00:26;;;;;;;6.28;1.23;;;20.70;96.90;;;;;;5038741;28;20045;-74
2021/06/23 11:03:07;;;;;;;4.13;0.43;;;20.90;96.80;;;;;;5039078;28;20026;-71
2021/06/23 11:05:48;;;;;;;3.13;0.68;;;20.90;96.10;;;;;;5035703;28;20036;-72
2021/06/23 11:08:34;;;;;;;4.50;0.80;;;20.80;95.70;;;;;;5035732;28;20091;-72
2021/06/23 11:11:02;;;;;;;5.55;0.52;;;20.80;95.40;;;;;;5039736;28;20567;-72
2021/06/23 11:13:32;;;;;;;3.03;0.73;;;20.70;95.20;;;;;;5034369;28;20048;-73
2021/06/23 11:15:58;;;;;;;1.05;0.30;;;20.80;95.30;;;;;;5040750;28;20029;-71
2021/06/23 11:18:35;;;;;;;5.57;0.82;;;20.70;95.40;;;;;;5036279;28;20040;-72
2021/06/23 11:21:07;;;;;;;1.85;0.57;;;21.00;95.90;;;;;;5035752;28;20053;-72
2021/06/23 11:23:43;;;;;;;1.88;0.80;;;21.00;95.10;;;;;;5039629;28;20037;-72
2021/06/23 11:26:29;;;;;;;3.78;0.50;;;21.00;94.50;;;;;;5040873;28;20639;-70
2021/06/23 11:28:57;;;;;;;5.20;0.60;;;21.20;95.10;;;;;;5035925;28;20041;-72
2021/06/23 11:31:38;;;;;;;3.22;0.60;;;21.20;94.80;;;;;;5037817;28;20033;-72
2021/06/23 11:34:04;;;;;;;2.95;0.50;;;21.10;94.30;;;;;;5043979;28;20033;-71
2021/06/23 11:36:30;;;;;;;3.08;0.50;;;21.10;94.50;;;;;;5041270;28;20044;-72
2021/06/23 11:38:56;;;;;;;7.35;0.75;;;20.90;93.60;;;;;;5034809;28;20060;-71
2021/06/23 11:41:22;;;;;;;7.25;1.80;;;20.90;93.80;;;;;;5042666;28;20053;-69
2021/06/23 11:43:48;;;;;;;5.90;0.43;;;20.80;93.40;;;;;;5046823;28;20124;-73
2021/06/23 11:46:15;;;;;;;2.45;0.75;;;20.80;93.20;;;;;;5042585;28;20509;-71
2021/06/23 11:48:41;;;;;;;6.45;0.70;;;20.90;93.70;;;;;;5044471;28;20039;-70
2021/06/23 11:51:08;;;;;;;2.25;0.45;;;21.00;94.10;;;;;;5044687;28;20037;-71
2021/06/23 11:53:34;;;;;;;1.17;0.47;;;21.20;93.80;;;;;;5048667;28;20033;-71
2021/06/23 11:55:59;;;;;;;1.85;0.63;;;21.30;93.30;;;;;;5046035;28;20119;-71
2021/06/23 11:58:25;;;;;;;0.90;0.35;;;21.20;93.60;;;;;;5046187;28;20033;-73
2021/06/23 12:00:51;;;;;;;4.20;0.73;;;21.20;93.40;;;;;;5047153;28;20037;-70
2021/06/23 12:03:18;;;;;;;5.03;0.73;;;21.10;93.40;;;;;;5045724;28;20039;-73
2021/06/23 12:05:45;;;;;;;1.75;0.45;;;21.10;93.40;;;;;;5043772;28;20057;-71
2021/06/23 12:08:11;;;;;;;1.65;0.60;;;21.10;93.30;;;;;;5040885;28;20627;-70
2021/06/23 12:10:39;;;;;;;5.60;1.00;;;21.00;92.70;;;;;;5048214;28;20048;-72
2021/06/23 12:13:05;;;;;;;4.60;0.70;;;21.10;93.60;;;;;;5044213;28;20040;-70
2021/06/23 12:15:31;;;;;;;1.90;0.50;;;21.10;93.80;;;;;;5048712;28;20045;-71
2021/06/23 12:18:00;;;;;;;3.50;0.63;;;20.80;92.80;;;;;;5045406;28;20064;-71
2021/06/23 12:20:29;;;;;;;2.78;0.60;;;20.90;92.90;;;;;;5046776;28;20037;-71
2021/06/23 12:22:56;;;;;;;5.57;0.60;;;21.00;93.50;;;;;;5045662;28;20032;-71
2021/06/23 12:25:24;;;;;;;2.53;0.70;;;21.00;92.50;;;;;;5044364;28;20429;-73
2021/06/23 12:27:50;;;;;;;3.33;0.93;;;21.10;92.30;;;;;;5047564;28;20029;-72
2021/06/23 12:30:16;;;;;;;1.25;0.50;;;21.10;92.30;;;;;;5040392;28;20052;-73
2021/06/23 12:32:42;;;;;;;3.35;0.70;;;21.10;92.60;;;;;;5049728;28;20056;-73
2021/06/23 12:35:08;;;;;;;1.75;0.40;;;21.00;91.90;;;;;;5051793;28;20122;-71
2021/06/23 12:37:34;;;;;;;1.85;0.47;;;20.90;92.50;;;;;;5051914;28;20033;-71
2021/06/23 12:40:00;;;;;;;2.95;0.60;;;20.80;93.00;;;;;;5049654;28;20456;-71
2021/06/23 12:42:26;;;;;;;2.50;1.08;;;20.70;92.90;;;;;;5053034;28;20048;-71
2021/06/23 12:44:51;;;;;;;3.03;0.77;;;20.60;92.90;;;;;;5052100;28;20044;-71
2021/06/23 12:47:17;;;;;;;1.50;0.65;;;20.60;93.10;;;;;;5051329;28;20048;-73
2021/06/23 12:49:43;;;;;;;2.90;0.60;;;20.60;93.20;;;;;;5052550;28;20316;-70
2021/06/23 12:52:08;;;;;;;1.75;0.65;;;20.60;92.60;;;;;;5048921;28;20039;-70
2021/06/23 12:54:34;;;;;;;7.15;0.70;;;20.60;92.90;;;;;;5048908;28;20045;-71
2021/06/23 12:57:01;;;;;;;3.03;0.50;;;20.60;93.20;;;;;;5050590;28;20033;-71
2021/06/23 12:59:30;;;;;;;2.88;0.40;;;20.70;93.20;;;;;;5052961;28;20055;-70
2021/06/23 13:01:57;;;;;;;3.17;0.50;;;20.80;92.60;;;;;;5049268;28;20333;-70
2021/06/23 13:04:23;;;;;;;2.80;0.40;;;20.70;93.10;;;;;;5049501;28;20047;-71
2021/06/23 13:06:48;;;;;;;2.10;0.50;;;20.70;93.70;;;;;;5055259;28;20056;-71